createdAt,value
2023-04-18T00:01:09.717Z,7.47
2023-04-18T00:04:13.989Z,7.35
2023-04-18T00:07:17.792Z,7.25
2023-04-18T00:10:20.084Z,6.78
2023-04-18T00:13:23.618Z,7.70
2023-04-18T00:16:25.896Z,7.57
2023-04-18T00:19:28.332Z,7.30
2023-04-18T00:22:30.734Z,8.15
2023-04-18T00:25:33.058Z,8.23
2023-04-18T00:28:37.100Z,8.35
2023-04-18T00:31:39.441Z,6.65
2023-04-18T00:34:41.709Z,6.75
2023-04-18T00:37:43.949Z,8.73
2023-04-18T00:40:46.947Z,6.97
2023-04-18T00:43:50.494Z,7.03
2023-04-18T00:46:52.748Z,7.50
2023-04-18T00:49:55.209Z,9.10
2023-04-18T00:52:57.962Z,9.15
2023-04-18T00:56:02.451Z,6.03
2023-04-18T00:59:09.104Z,6.78
2023-04-18T01:02:11.312Z,5.93
2023-04-18T01:05:13.682Z,6.22
2023-04-18T01:08:16.207Z,5.82
2023-04-18T01:11:18.461Z,6.43
2023-04-18T01:14:24.405Z,8.00
2023-04-18T01:17:28.378Z,5.78
2023-04-18T01:20:31.270Z,6.25
2023-04-18T01:23:33.564Z,7.03
2023-04-18T01:26:38.885Z,7.97
2023-04-18T01:29:41.121Z,4.65
2023-04-18T01:32:44.515Z,5.53
2023-04-18T01:35:46.734Z,7.47
2023-04-18T01:38:48.925Z,6.80
2023-04-18T01:41:52.693Z,5.22
2023-04-18T01:44:54.936Z,6.78
2023-04-18T01:47:57.191Z,7.07
2023-04-18T01:50:59.488Z,5.43
2023-04-18T01:54:01.985Z,7.25
2023-04-18T01:57:05.663Z,6.35
2023-04-18T02:00:08.972Z,6.80
2023-04-18T02:03:16.946Z,5.47
2023-04-18T02:06:19.321Z,7.15
2023-04-18T02:09:23.351Z,5.93
2023-04-18T02:12:27.159Z,7.03
2023-04-18T02:15:29.577Z,5.80
2023-04-18T02:18:34.507Z,8.30
2023-04-18T02:21:36.842Z,7.70
2023-04-18T02:24:39.083Z,6.38
2023-04-18T02:27:42.749Z,7.22
2023-04-18T02:30:45.044Z,5.60
2023-04-18T02:33:48.125Z,6.38
2023-04-18T02:36:50.417Z,6.07
2023-04-18T02:39:53.112Z,5.85
2023-04-18T02:42:56.956Z,7.70
2023-04-18T02:45:59.355Z,6.75
2023-04-18T02:49:02.601Z,6.85
2023-04-18T02:52:06.572Z,6.28
2023-04-18T02:55:09.582Z,5.70
2023-04-18T02:58:16.993Z,5.88
2023-04-18T03:01:48.580Z,6.95
2023-04-18T03:04:54.131Z,7.35
2023-04-18T03:07:56.448Z,7.40
2023-04-18T03:10:58.963Z,4.80
2023-04-18T03:14:04.737Z,8.73
2023-04-18T03:17:18.215Z,9.30
2023-04-18T03:20:24.785Z,6.40
2023-04-18T03:23:28.147Z,9.07
2023-04-18T03:26:30.828Z,7.68
2023-04-18T03:29:34.572Z,10.20
2023-04-18T03:32:37.246Z,6.80
2023-04-18T03:35:42.614Z,7.97
2023-04-18T03:38:48.383Z,6.38
2023-04-18T03:41:52.186Z,6.53
2023-04-18T03:44:55.860Z,6.35
2023-04-18T03:47:58.812Z,6.40
2023-04-18T03:51:01.460Z,8.40
2023-04-18T03:54:05.772Z,6.97
2023-04-18T03:57:08.074Z,7.78
2023-04-18T04:00:15.252Z,11.02
2023-04-18T04:03:30.441Z,8.63
2023-04-18T04:06:33.098Z,6.72
2023-04-18T04:09:36.473Z,7.35
2023-04-18T04:12:38.920Z,11.15
2023-04-18T04:15:43.196Z,7.45
2023-04-18T04:18:46.366Z,6.38
2023-04-18T04:21:49.280Z,7.07
2023-04-18T04:24:53.059Z,6.30
2023-04-18T04:28:03.010Z,6.90
2023-04-18T04:31:12.150Z,7.30
2023-04-18T04:34:16.922Z,10.43
2023-04-18T04:37:19.404Z,7.30
2023-04-18T04:40:48.110Z,7.95
2023-04-18T04:43:52.258Z,8.13
2023-04-18T04:47:00.722Z,9.38
2023-04-18T04:50:14.786Z,7.88
2023-04-18T04:53:17.022Z,8.00
2023-04-18T04:56:19.711Z,11.32
2023-04-18T04:59:22.548Z,9.27
2023-04-18T05:02:26.449Z,7.90
2023-04-18T05:05:30.406Z,6.65
2023-04-18T05:08:32.654Z,8.50
2023-04-18T05:11:35.897Z,9.82
2023-04-18T05:14:38.356Z,8.30
2023-04-18T05:17:42.310Z,8.77
2023-04-18T05:20:44.574Z,7.00
2023-04-18T05:23:46.874Z,9.73
2023-04-18T05:26:49.185Z,9.15
2023-04-18T05:29:51.617Z,9.95
2023-04-18T05:32:55.394Z,8.23
2023-04-18T05:35:58.000Z,7.78
2023-04-18T05:39:00.258Z,8.35
2023-04-18T05:42:02.767Z,9.18
2023-04-18T05:45:05.930Z,7.45
2023-04-18T05:48:09.660Z,6.85
2023-04-18T05:51:11.961Z,7.22
2023-04-18T05:54:14.378Z,6.72
2023-04-18T05:57:16.852Z,7.97
2023-04-18T06:00:19.834Z,7.78
2023-04-18T06:03:23.938Z,7.43
2023-04-18T06:06:27.612Z,8.02
2023-04-18T06:09:29.912Z,8.57
2023-04-18T06:12:32.419Z,7.57
2023-04-18T06:15:36.587Z,7.05
2023-04-18T06:18:40.445Z,7.40
2023-04-18T06:21:42.851Z,8.00
2023-04-18T06:24:45.232Z,7.50
2023-04-18T06:27:47.849Z,6.78
2023-04-18T06:30:50.458Z,6.88
2023-04-18T06:33:57.419Z,7.05
2023-04-18T06:36:59.841Z,6.25
2023-04-18T06:40:02.074Z,5.95
2023-04-18T06:43:04.833Z,5.72
2023-04-18T06:46:08.729Z,6.65
2023-04-18T06:49:12.493Z,5.82
2023-04-18T06:52:14.706Z,5.15
2023-04-18T06:55:16.977Z,5.22
2023-04-18T06:58:19.283Z,4.78
2023-04-18T07:01:21.557Z,5.50
2023-04-18T07:04:25.490Z,5.32
2023-04-18T07:07:28.124Z,6.38
2023-04-18T07:10:30.551Z,5.53
2023-04-18T07:13:32.856Z,7.43
2023-04-18T07:16:35.174Z,5.20
2023-04-18T07:19:39.161Z,4.78
2023-04-18T07:22:41.543Z,5.20
2023-04-18T07:25:43.772Z,4.50
2023-04-18T07:28:46.096Z,4.40
2023-04-18T07:31:48.624Z,4.38
2023-04-18T07:34:52.803Z,3.40
2023-04-18T07:37:55.136Z,4.20
2023-04-18T07:40:57.992Z,4.28
2023-04-18T07:44:00.396Z,4.00
2023-04-18T07:47:05.650Z,5.22
2023-04-18T07:50:10.668Z,4.47
2023-04-18T07:53:12.936Z,4.00
2023-04-18T07:56:15.676Z,3.53
2023-04-18T07:59:18.068Z,3.97
2023-04-18T08:02:21.023Z,3.78
2023-04-18T08:05:24.989Z,3.20
2023-04-18T08:08:27.391Z,3.58
2023-04-18T08:11:29.666Z,4.30
2023-04-18T08:14:32.187Z,3.15
2023-04-18T08:17:34.476Z,3.03
2023-04-18T08:20:38.357Z,3.53
2023-04-18T08:23:42.145Z,3.33
2023-04-18T08:26:44.359Z,3.50
2023-04-18T08:29:46.837Z,3.42
2023-04-18T08:32:49.651Z,3.70
2023-04-18T08:35:53.435Z,3.83
2023-04-18T08:38:56.258Z,4.43
2023-04-18T08:41:59.950Z,6.65
2023-04-18T08:45:02.674Z,3.80
2023-04-18T08:48:06.200Z,3.35
2023-04-18T08:51:09.793Z,3.72
2023-04-18T08:54:12.253Z,3.63
2023-04-18T08:57:26.657Z,3.72
2023-04-18T09:00:29.338Z,4.75
2023-04-18T09:03:37.514Z,2.92
2023-04-18T09:06:51.816Z,3.88
2023-04-18T09:09:57.154Z,3.92
2023-04-18T09:13:01.202Z,4.30
2023-04-18T09:16:03.672Z,4.22
2023-04-18T09:19:14.007Z,4.38
2023-04-18T09:22:18.099Z,3.45
2023-04-18T09:25:29.319Z,3.42
2023-04-18T09:28:33.130Z,4.63
2023-04-18T09:31:35.715Z,3.63
2023-04-18T09:34:41.658Z,4.38
2023-04-18T09:37:51.143Z,3.22
2023-04-18T09:41:07.823Z,3.92
2023-04-18T09:44:14.368Z,4.55
2023-04-18T09:47:17.718Z,4.20
2023-04-18T09:50:20.768Z,3.92
2023-04-18T09:53:24.602Z,2.90
2023-04-18T09:56:28.706Z,3.28
2023-04-18T09:59:38.044Z,4.57
2023-04-18T10:02:48.265Z,2.50
2023-04-18T10:05:50.954Z,2.80
2023-04-18T10:08:55.256Z,2.63
2023-04-18T10:11:58.499Z,2.67
2023-04-18T10:15:00.953Z,3.00
2023-04-18T10:18:08.940Z,3.00
2023-04-18T10:21:11.730Z,2.60
2023-04-18T10:24:52.775Z,2.10
2023-04-18T10:27:58.888Z,2.42
2023-04-18T10:31:05.594Z,3.03
2023-04-18T10:34:07.979Z,2.60
2023-04-18T10:37:12.981Z,2.40
2023-04-18T10:40:15.705Z,2.45
2023-04-18T10:43:20.875Z,2.40
2023-04-18T10:46:31.580Z,2.47
2023-04-18T10:52:38.676Z,3.75
2023-04-18T10:55:42.769Z,2.50
2023-04-18T10:58:50.994Z,2.92
2023-04-18T11:01:56.561Z,3.17
2023-04-18T11:05:00.309Z,2.97
2023-04-18T11:08:03.480Z,3.08
2023-04-18T11:11:09.316Z,3.50
2023-04-18T11:14:13.407Z,3.67
2023-04-18T11:17:17.893Z,2.55
2023-04-18T11:20:20.435Z,3.15
2023-04-18T11:23:25.668Z,2.95
2023-04-18T11:26:28.957Z,2.75
2023-04-18T11:29:32.534Z,3.80
2023-04-18T11:32:36.003Z,3.00
2023-04-18T11:35:39.425Z,3.20
2023-04-18T11:38:43.915Z,3.13
2023-04-18T11:41:50.449Z,3.70
2023-04-18T11:44:54.491Z,3.15
2023-04-18T11:47:58.432Z,3.38
2023-04-18T11:51:01.923Z,3.13
2023-04-18T11:54:04.340Z,2.58
2023-04-18T11:57:07.711Z,3.47
2023-04-18T12:00:12.867Z,3.05
2023-04-18T12:03:16.677Z,3.53
2023-04-18T12:06:19.156Z,2.30
2023-04-18T12:09:22.925Z,3.40
2023-04-18T12:12:25.250Z,2.97
2023-04-18T12:15:30.116Z,3.35
2023-04-18T12:18:32.636Z,2.90
2023-04-18T12:21:34.938Z,2.88
2023-04-18T12:24:37.951Z,4.05
2023-04-18T12:27:54.208Z,2.92
2023-04-18T12:30:58.163Z,3.85
2023-04-18T12:34:00.950Z,2.65
2023-04-18T12:37:04.896Z,3.63
2023-04-18T12:40:08.850Z,3.15
2023-04-18T12:43:11.145Z,3.70
2023-04-18T12:46:14.745Z,2.15
2023-04-18T12:49:19.786Z,2.67
2023-04-18T12:52:22.312Z,2.65
2023-04-18T12:55:24.837Z,2.83
2023-04-18T12:58:27.984Z,2.55
2023-04-18T13:01:31.593Z,2.75
2023-04-18T13:04:34.313Z,3.50
2023-04-18T13:07:40.460Z,2.72
2023-04-18T13:10:42.774Z,2.28
2023-04-18T13:13:45.012Z,3.08
2023-04-18T13:16:49.032Z,2.65
2023-04-18T13:19:51.942Z,2.33
2023-04-18T13:22:54.199Z,2.38
2023-04-18T13:25:56.390Z,2.75
2023-04-18T13:28:58.683Z,2.90
2023-04-18T13:32:02.350Z,2.92
2023-04-18T13:35:08.084Z,3.00
2023-04-18T13:38:11.126Z,2.42
2023-04-18T13:41:13.837Z,3.00
2023-04-18T13:44:16.209Z,2.53
2023-04-18T13:47:20.183Z,2.88
2023-04-18T13:50:23.284Z,2.75
2023-04-18T13:53:29.523Z,2.75
2023-04-18T13:56:33.122Z,3.95
2023-04-18T13:59:35.393Z,2.88
2023-04-18T14:02:42.087Z,2.85
2023-04-18T14:05:44.502Z,3.05
2023-04-18T14:08:46.794Z,3.22
2023-04-18T14:11:49.202Z,3.85
2023-04-18T14:14:51.457Z,2.38
2023-04-18T14:17:56.782Z,4.82
2023-04-18T14:20:59.651Z,3.25
2023-04-18T14:24:02.064Z,3.33
2023-04-18T14:27:04.377Z,3.03
2023-04-18T14:30:08.771Z,5.10
2023-04-18T14:33:12.736Z,2.60
2023-04-18T14:36:15.343Z,4.40
2023-04-18T14:39:17.895Z,3.13
2023-04-18T14:42:20.284Z,3.00
2023-04-18T14:45:22.901Z,4.15
2023-04-18T14:48:26.655Z,2.50
2023-04-18T14:51:29.502Z,3.35
2023-04-18T14:54:32.712Z,3.22
2023-04-18T14:57:36.916Z,3.65
2023-04-18T15:00:39.453Z,3.65
2023-04-18T15:03:43.532Z,4.35
2023-04-18T15:06:45.930Z,3.67
2023-04-18T15:09:48.332Z,3.80
2023-04-18T15:12:51.224Z,3.90
2023-04-18T15:15:56.645Z,3.35
2023-04-18T15:19:00.566Z,4.10
2023-04-18T15:22:03.135Z,3.53
2023-04-18T15:25:06.605Z,3.70
2023-04-18T15:28:09.122Z,3.50
2023-04-18T15:31:11.739Z,3.60
2023-04-18T15:34:15.673Z,3.30
2023-04-18T15:37:18.568Z,2.88
2023-04-18T15:40:21.336Z,3.22
2023-04-18T15:43:23.724Z,3.40
2023-04-18T15:46:26.102Z,3.25
2023-04-18T15:49:29.822Z,3.20
2023-04-18T15:52:32.180Z,4.03
2023-04-18T15:55:35.097Z,3.63
2023-04-18T15:58:37.398Z,3.47
2023-04-18T16:01:39.859Z,3.60
2023-04-18T16:04:43.637Z,3.38
2023-04-18T16:07:46.110Z,4.30
2023-04-18T16:10:48.587Z,3.13
2023-04-18T16:13:51.150Z,3.03
2023-04-18T16:16:54.981Z,2.95
2023-04-18T16:19:58.799Z,3.00
2023-04-18T16:23:03.095Z,2.85
2023-04-18T16:26:06.238Z,2.80
2023-04-18T16:29:10.366Z,3.00
2023-04-18T16:32:12.844Z,2.65
2023-04-18T16:35:19.015Z,2.67
2023-04-18T16:38:23.536Z,2.60
2023-04-18T16:41:26.001Z,4.30
2023-04-18T16:44:28.312Z,2.63
2023-04-18T16:47:30.841Z,2.65
2023-04-18T16:50:35.068Z,2.40
2023-04-18T16:53:37.346Z,2.35
2023-04-18T16:56:39.804Z,2.78
2023-04-18T16:59:44.687Z,3.70
2023-04-18T17:02:48.416Z,2.85
2023-04-18T17:05:52.377Z,3.10
2023-04-18T17:08:55.711Z,3.22
2023-04-18T17:11:58.602Z,3.20
2023-04-18T17:15:00.988Z,2.72
2023-04-18T17:18:03.851Z,3.20
2023-04-18T17:21:07.750Z,2.85
2023-04-18T17:24:10.383Z,2.70
2023-04-18T17:27:12.954Z,2.65
2023-04-18T17:30:15.501Z,2.70
2023-04-18T17:33:17.923Z,2.72
2023-04-18T17:36:23.405Z,2.13
2023-04-18T17:39:25.919Z,2.55
2023-04-18T17:42:28.494Z,2.45
2023-04-18T17:45:31.174Z,3.60
2023-04-18T17:48:33.569Z,3.10
2023-04-18T17:51:37.263Z,2.42
2023-04-18T17:54:39.730Z,2.70
2023-04-18T17:57:42.159Z,2.42
2023-04-18T18:00:44.582Z,3.08
2023-04-18T18:03:48.758Z,3.20
2023-04-18T18:06:56.427Z,2.50
2023-04-18T18:09:59.115Z,3.47
2023-04-18T18:13:03.476Z,2.42
2023-04-18T18:16:06.455Z,2.83
2023-04-18T18:19:14.916Z,3.03
2023-04-18T18:22:18.855Z,2.45
2023-04-18T18:25:21.538Z,2.95
2023-04-18T18:28:23.882Z,3.10
2023-04-18T18:31:26.431Z,3.60
2023-04-18T18:34:31.944Z,3.08
2023-04-18T18:37:36.229Z,3.08
2023-04-18T18:40:38.604Z,3.38
2023-04-18T18:43:40.956Z,2.78
2023-04-18T18:46:45.724Z,2.75
2023-04-18T18:49:48.813Z,3.20
2023-04-18T18:52:52.501Z,3.85
2023-04-18T18:55:54.879Z,4.03
2023-04-18T18:58:57.296Z,2.72
2023-04-18T19:02:00.050Z,2.95
2023-04-18T19:05:04.291Z,2.65
2023-04-18T19:08:09.268Z,4.13
2023-04-18T19:11:12.820Z,2.72
2023-04-18T19:14:15.485Z,4.18
2023-04-18T19:17:19.292Z,3.67
2023-04-18T19:20:23.446Z,2.50
2023-04-18T19:23:27.862Z,2.90
2023-04-18T19:26:30.301Z,2.60
2023-04-18T19:29:32.991Z,3.47
2023-04-18T19:32:36.065Z,3.17
2023-04-18T19:35:38.816Z,3.60
2023-04-18T19:38:42.618Z,2.67
2023-04-18T19:41:46.145Z,3.15
2023-04-18T19:44:48.687Z,3.38
2023-04-18T19:47:51.322Z,2.97
2023-04-18T19:50:53.701Z,2.55
2023-04-18T19:53:59.743Z,2.65
2023-04-18T19:57:02.777Z,2.22
2023-04-18T20:00:07.143Z,2.45
2023-04-18T20:03:17.049Z,2.65
2023-04-18T20:06:20.198Z,2.53
2023-04-18T20:09:24.158Z,2.58
2023-04-18T20:12:27.129Z,2.50
2023-04-18T20:15:30.689Z,2.63
2023-04-18T20:18:35.654Z,1.83
2023-04-18T20:21:38.247Z,2.30
2023-04-18T20:24:42.089Z,2.80
2023-04-18T20:27:44.780Z,1.85
2023-04-18T20:30:48.075Z,2.80
2023-04-18T20:33:50.538Z,2.50
2023-04-18T20:36:52.903Z,2.25
2023-04-18T20:39:58.748Z,2.47
2023-04-18T20:43:03.395Z,3.13
2023-04-18T20:46:06.912Z,3.00
2023-04-18T20:49:09.745Z,2.30
2023-04-18T20:52:14.333Z,2.85
2023-04-18T20:55:18.313Z,2.85
2023-04-18T20:58:20.795Z,2.60
2023-04-18T21:01:23.171Z,3.30
2023-04-18T21:04:25.667Z,3.33
2023-04-18T21:07:28.964Z,3.28
2023-04-18T21:10:32.596Z,3.78
2023-04-18T21:13:35.076Z,4.45
2023-04-18T21:16:39.430Z,4.22
2023-04-18T21:19:41.934Z,4.30
2023-04-18T21:22:45.597Z,4.70
2023-04-18T21:25:49.238Z,4.60
2023-04-18T21:28:56.268Z,4.57
2023-04-18T21:31:58.676Z,4.38
2023-04-18T21:35:01.499Z,4.10
2023-04-18T21:38:03.975Z,4.43
2023-04-18T21:41:07.885Z,3.00
2023-04-18T21:44:10.631Z,3.33
2023-04-18T21:47:12.864Z,4.43
2023-04-18T21:50:15.611Z,3.38
2023-04-18T21:53:17.820Z,3.60
2023-04-18T21:56:21.388Z,3.08
2023-04-18T21:59:24.164Z,3.20
2023-04-18T22:02:26.928Z,3.03
2023-04-18T22:05:29.253Z,3.95
2023-04-18T22:08:31.616Z,3.95
2023-04-18T22:11:35.503Z,5.00
2023-04-18T22:14:40.310Z,4.18
2023-04-18T22:17:43.118Z,3.35
2023-04-18T22:20:46.886Z,3.90
2023-04-18T22:23:49.297Z,4.25
2023-04-18T22:26:53.033Z,3.75
2023-04-18T22:29:55.383Z,3.42
2023-04-18T22:32:57.718Z,2.85
2023-04-18T22:36:00.852Z,3.25
2023-04-18T22:39:04.576Z,3.10
2023-04-18T22:42:08.231Z,3.55
2023-04-18T22:45:11.155Z,4.10
2023-04-18T22:48:13.566Z,3.15
2023-04-18T22:51:18.102Z,3.55
2023-04-18T22:54:20.516Z,4.07
2023-04-18T22:57:24.258Z,3.22
2023-04-18T23:00:26.658Z,3.20
2023-04-18T23:03:31.498Z,3.78
2023-04-18T23:06:33.959Z,4.68
2023-04-18T23:09:36.329Z,4.50
2023-04-18T23:12:39.902Z,3.03
2023-04-18T23:15:42.208Z,3.38
2023-04-18T23:18:44.513Z,4.30
2023-04-18T23:21:48.978Z,4.00
2023-04-18T23:24:51.907Z,3.40
2023-04-18T23:27:55.529Z,3.83
2023-04-18T23:30:57.734Z,4.45
2023-04-18T23:33:59.965Z,3.35
2023-04-18T23:37:02.207Z,3.42
2023-04-18T23:40:06.689Z,3.70
2023-04-18T23:43:10.588Z,3.28
2023-04-18T23:46:13.337Z,3.60
2023-04-18T23:49:15.751Z,4.05
2023-04-18T23:52:18.003Z,3.30
2023-04-18T23:55:20.406Z,4.13
2023-04-18T23:58:24.101Z,3.03
